sensor_id;sensor_type;location;lat;lon;timestamp;temperature;humidity
67275;DHT22;55463;52.324;5.122;2023-09-18T00:02:20;18.64;99.99
67275;DHT22;55463;52.324;5.122;2023-09-18T00:04:46;18.66;99.99
67275;DHT22;55463;52.324;5.122;2023-09-18T00:07:11;18.70;99.99
67275;DHT22;55463;52.324;5.122;2023-09-18T00:09:36;18.72;99.99
67275;DHT22;55463;52.324;5.122;2023-09-18T00:12:02;18.72;99.99
67275;DHT22;55463;52.324;5.122;2023-09-18T00:14:28;18.72;99.99
67275;DHT22;55463;52.324;5.122;2023-09-18T00:16:53;18.73;99.99
67275;DHT22;55463;52.324;5.122;2023-09-18T00:19:18;18.73;99.99
67275;DHT22;55463;52.324;5.122;2023-09-18T00:21:44;18.74;99.99
67275;DHT22;55463;52.324;5.122;2023-09-18T00:24:09;18.73;99.99
67275;DHT22;55463;52.324;5.122;2023-09-18T00:26:37;18.72;99.99
67275;DHT22;55463;52.324;5.122;2023-09-18T00:29:03;18.73;99.99
67275;DHT22;55463;52.324;5.122;2023-09-18T00:31:28;18.73;99.99
67275;DHT22;55463;52.324;5.122;2023-09-18T00:33:54;18.72;99.99
67275;DHT22;55463;52.324;5.122;2023-09-18T00:36:19;18.73;99.99
67275;DHT22;55463;52.324;5.122;2023-09-18T00:38:44;18.73;99.99
67275;DHT22;55463;52.324;5.122;2023-09-18T00:41:11;18.73;99.99
67275;DHT22;55463;52.324;5.122;2023-09-18T00:43:37;18.70;99.99
67275;DHT22;55463;52.324;5.122;2023-09-18T00:46:03;18.73;99.99
67275;DHT22;55463;52.324;5.122;2023-09-18T00:48:29;18.70;99.99
67275;DHT22;55463;52.324;5.122;2023-09-18T00:50:55;18.74;99.99
67275;DHT22;55463;52.324;5.122;2023-09-18T00:53:23;18.74;99.99
67275;DHT22;55463;52.324;5.122;2023-09-18T00:55:53;18.72;99.99
67275;DHT22;55463;52.324;5.122;2023-09-18T00:58:19;18.73;99.99
67275;DHT22;55463;52.324;5.122;2023-09-18T01:00:45;18.74;99.99
67275;DHT22;55463;52.324;5.122;2023-09-18T01:03:10;18.76;99.99
67275;DHT22;55463;52.324;5.122;2023-09-18T01:05:36;18.74;99.99
67275;DHT22;55463;52.324;5.122;2023-09-18T01:08:02;18.74;99.99
67275;DHT22;55463;52.324;5.122;2023-09-18T01:10:34;18.74;99.99
67275;DHT22;55463;52.324;5.122;2023-09-18T01:13:18;18.74;99.99
67275;DHT22;55463;52.324;5.122;2023-09-18T01:15:52;18.76;99.99
67275;DHT22;55463;52.324;5.122;2023-09-18T01:18:19;18.74;99.99
67275;DHT22;55463;52.324;5.122;2023-09-18T01:20:44;18.73;99.99
67275;DHT22;55463;52.324;5.122;2023-09-18T01:23:10;18.77;99.99
67275;DHT22;55463;52.324;5.122;2023-09-18T01:25:37;18.79;99.99
67275;DHT22;55463;52.324;5.122;2023-09-18T01:28:03;18.81;99.99
67275;DHT22;55463;52.324;5.122;2023-09-18T01:30:28;18.84;99.99
67275;DHT22;55463;52.324;5.122;2023-09-18T01:32:57;18.86;99.99
67275;DHT22;55463;52.324;5.122;2023-09-18T01:35:26;18.86;99.99
67275;DHT22;55463;52.324;5.122;2023-09-18T01:37:58;18.89;99.99
67275;DHT22;55463;52.324;5.122;2023-09-18T01:40:25;18.84;99.99
67275;DHT22;55463;52.324;5.122;2023-09-18T01:42:50;18.84;99.99
67275;DHT22;55463;52.324;5.122;2023-09-18T01:45:16;18.86;99.99
67275;DHT22;55463;52.324;5.122;2023-09-18T01:47:42;18.84;99.99
67275;DHT22;55463;52.324;5.122;2023-09-18T01:50:07;18.86;99.99
67275;DHT22;55463;52.324;5.122;2023-09-18T01:52:33;18.86;99.99
67275;DHT22;55463;52.324;5.122;2023-09-18T01:55:01;18.89;99.99
67275;DHT22;55463;52.324;5.122;2023-09-18T01:57:28;18.90;99.99
67275;DHT22;55463;52.324;5.122;2023-09-18T01:59:54;18.91;99.99
67275;DHT22;55463;52.324;5.122;2023-09-18T02:02:20;18.90;99.99
67275;DHT22;55463;52.324;5.122;2023-09-18T02:04:45;18.90;99.99
67275;DHT22;55463;52.324;5.122;2023-09-18T02:07:11;18.90;99.99
67275;DHT22;55463;52.324;5.122;2023-09-18T02:09:36;18.90;99.99
67275;DHT22;55463;52.324;5.122;2023-09-18T02:12:02;18.90;99.99
67275;DHT22;55463;52.324;5.122;2023-09-18T02:14:28;18.93;99.99
67275;DHT22;55463;52.324;5.122;2023-09-18T02:16:56;18.96;99.99
67275;DHT22;55463;52.324;5.122;2023-09-18T02:19:22;18.94;99.99
67275;DHT22;55463;52.324;5.122;2023-09-18T02:21:47;18.97;99.99
67275;DHT22;55463;52.324;5.122;2023-09-18T02:24:13;18.96;99.99
67275;DHT22;55463;52.324;5.122;2023-09-18T02:26:38;19.00;99.99
67275;DHT22;55463;52.324;5.122;2023-09-18T02:29:07;19.04;99.99
67275;DHT22;55463;52.324;5.122;2023-09-18T02:31:34;19.04;99.99
67275;DHT22;55463;52.324;5.122;2023-09-18T02:34:00;19.01;99.99
67275;DHT22;55463;52.324;5.122;2023-09-18T02:36:25;19.04;99.99
67275;DHT22;55463;52.324;5.122;2023-09-18T02:38:51;19.03;99.99
67275;DHT22;55463;52.324;5.122;2023-09-18T02:41:16;18.98;99.99
67275;DHT22;55463;52.324;5.122;2023-09-18T02:43:42;19.00;99.99
67275;DHT22;55463;52.324;5.122;2023-09-18T02:46:08;19.00;99.99
67275;DHT22;55463;52.324;5.122;2023-09-18T02:48:34;19.00;99.99
67275;DHT22;55463;52.324;5.122;2023-09-18T02:51:01;18.97;99.99
67275;DHT22;55463;52.324;5.122;2023-09-18T02:53:26;18.97;99.98
67275;DHT22;55463;52.324;5.122;2023-09-18T02:55:55;18.97;99.99
67275;DHT22;55463;52.324;5.122;2023-09-18T02:58:22;18.96;99.99
67275;DHT22;55463;52.324;5.122;2023-09-18T03:00:50;18.94;99.99
67275;DHT22;55463;52.324;5.122;2023-09-18T03:03:16;18.90;99.99
67275;DHT22;55463;52.324;5.122;2023-09-18T03:05:43;18.90;99.99
67275;DHT22;55463;52.324;5.122;2023-09-18T03:08:10;18.89;99.99
67275;DHT22;55463;52.324;5.122;2023-09-18T03:10:40;18.87;99.99
67275;DHT22;55463;52.324;5.122;2023-09-18T03:13:07;18.86;99.99
67275;DHT22;55463;52.324;5.122;2023-09-18T03:15:33;18.86;99.99
67275;DHT22;55463;52.324;5.122;2023-09-18T03:17:59;18.84;99.99
67275;DHT22;55463;52.324;5.122;2023-09-18T03:20:27;18.86;99.99
67275;DHT22;55463;52.324;5.122;2023-09-18T03:22:54;18.84;99.99
67275;DHT22;55463;52.324;5.122;2023-09-18T03:25:19;18.81;99.99
67275;DHT22;55463;52.324;5.122;2023-09-18T03:27:45;18.83;99.99
67275;DHT22;55463;52.324;5.122;2023-09-18T03:30:10;18.86;99.99
67275;DHT22;55463;52.324;5.122;2023-09-18T03:32:44;18.86;99.99
67275;DHT22;55463;52.324;5.122;2023-09-18T03:35:10;18.83;99.99
67275;DHT22;55463;52.324;5.122;2023-09-18T03:37:46;18.86;99.99
67275;DHT22;55463;52.324;5.122;2023-09-18T03:40:12;18.86;99.99
67275;DHT22;55463;52.324;5.122;2023-09-18T03:42:37;18.83;99.99
67275;DHT22;55463;52.324;5.122;2023-09-18T03:45:05;18.86;99.99
67275;DHT22;55463;52.324;5.122;2023-09-18T03:47:31;18.86;99.99
67275;DHT22;55463;52.324;5.122;2023-09-18T03:49:56;18.86;99.99
67275;DHT22;55463;52.324;5.122;2023-09-18T03:52:22;18.87;99.99
67275;DHT22;55463;52.324;5.122;2023-09-18T03:54:47;18.86;99.99
67275;DHT22;55463;52.324;5.122;2023-09-18T03:57:13;18.86;99.99
67275;DHT22;55463;52.324;5.122;2023-09-18T03:59:38;18.87;99.99
67275;DHT22;55463;52.324;5.122;2023-09-18T04:02:04;18.86;99.99
67275;DHT22;55463;52.324;5.122;2023-09-18T04:04:30;18.87;99.99
67275;DHT22;55463;52.324;5.122;2023-09-18T04:06:56;18.89;99.99
67275;DHT22;55463;52.324;5.122;2023-09-18T04:09:21;18.90;99.99
67275;DHT22;55463;52.324;5.122;2023-09-18T04:11:46;18.93;99.99
67275;DHT22;55463;52.324;5.122;2023-09-18T04:14:12;18.89;99.99
67275;DHT22;55463;52.324;5.122;2023-09-18T04:16:37;18.91;99.99
67275;DHT22;55463;52.324;5.122;2023-09-18T04:19:05;18.91;99.99
67275;DHT22;55463;52.324;5.122;2023-09-18T04:21:31;18.94;99.99
67275;DHT22;55463;52.324;5.122;2023-09-18T04:23:56;18.93;99.99
67275;DHT22;55463;52.324;5.122;2023-09-18T04:26:27;18.96;99.99
67275;DHT22;55463;52.324;5.122;2023-09-18T04:29:01;19.01;99.99
67275;DHT22;55463;52.324;5.122;2023-09-18T04:31:27;19.06;99.99
67275;DHT22;55463;52.324;5.122;2023-09-18T04:33:53;19.08;99.99
67275;DHT22;55463;52.324;5.122;2023-09-18T04:36:19;19.12;99.99
67275;DHT22;55463;52.324;5.122;2023-09-18T04:38:45;18.93;99.99
67275;DHT22;55463;52.324;5.122;2023-09-18T04:41:10;18.87;99.99
67275;DHT22;55463;52.324;5.122;2023-09-18T04:43:39;18.83;99.99
67275;DHT22;55463;52.324;5.122;2023-09-18T04:46:05;18.77;99.99
67275;DHT22;55463;52.324;5.122;2023-09-18T04:48:33;18.79;99.99
67275;DHT22;55463;52.324;5.122;2023-09-18T04:50:59;18.77;99.99
67275;DHT22;55463;52.324;5.122;2023-09-18T04:53:26;18.74;99.99
67275;DHT22;55463;52.324;5.122;2023-09-18T04:55:52;18.76;99.99
67275;DHT22;55463;52.324;5.122;2023-09-18T04:58:18;18.74;99.99
67275;DHT22;55463;52.324;5.122;2023-09-18T05:00:43;18.73;99.99
67275;DHT22;55463;52.324;5.122;2023-09-18T05:03:10;18.72;99.99
67275;DHT22;55463;52.324;5.122;2023-09-18T05:05:36;18.74;99.99
67275;DHT22;55463;52.324;5.122;2023-09-18T05:08:02;18.72;99.99
67275;DHT22;55463;52.324;5.122;2023-09-18T05:10:33;18.70;99.99
67275;DHT22;55463;52.324;5.122;2023-09-18T05:12:59;18.70;99.99
67275;DHT22;55463;52.324;5.122;2023-09-18T05:15:25;18.74;99.99
67275;DHT22;55463;52.324;5.122;2023-09-18T05:17:52;18.72;99.99
67275;DHT22;55463;52.324;5.122;2023-09-18T05:20:22;18.72;99.99
67275;DHT22;55463;52.324;5.122;2023-09-18T05:22:49;18.70;99.99
67275;DHT22;55463;52.324;5.122;2023-09-18T05:25:15;18.69;99.99
67275;DHT22;55463;52.324;5.122;2023-09-18T05:27:41;18.69;99.99
67275;DHT22;55463;52.324;5.122;2023-09-18T05:30:12;18.66;99.99
67275;DHT22;55463;52.324;5.122;2023-09-18T05:32:38;18.64;99.99
67275;DHT22;55463;52.324;5.122;2023-09-18T05:35:04;18.67;99.99
67275;DHT22;55463;52.324;5.122;2023-09-18T05:37:32;18.64;99.99
67275;DHT22;55463;52.324;5.122;2023-09-18T05:39:57;18.64;99.99
67275;DHT22;55463;52.324;5.122;2023-09-18T05:42:23;18.64;99.99
67275;DHT22;55463;52.324;5.122;2023-09-18T05:44:48;18.64;99.99
67275;DHT22;55463;52.324;5.122;2023-09-18T05:47:13;18.66;99.99
67275;DHT22;55463;52.324;5.122;2023-09-18T05:49:39;18.66;99.99
67275;DHT22;55463;52.324;5.122;2023-09-18T05:52:04;18.69;99.99
67275;DHT22;55463;52.324;5.122;2023-09-18T05:54:30;18.69;99.99
67275;DHT22;55463;52.324;5.122;2023-09-18T05:56:55;18.70;99.99
67275;DHT22;55463;52.324;5.122;2023-09-18T05:59:20;18.76;99.99
67275;DHT22;55463;52.324;5.122;2023-09-18T06:01:46;18.77;99.99
67275;DHT22;55463;52.324;5.122;2023-09-18T06:04:13;18.79;99.99
67275;DHT22;55463;52.324;5.122;2023-09-18T06:06:39;18.80;99.99
67275;DHT22;55463;52.324;5.122;2023-09-18T06:09:04;18.83;99.99
67275;DHT22;55463;52.324;5.122;2023-09-18T06:11:30;18.84;99.99
67275;DHT22;55463;52.324;5.122;2023-09-18T06:13:55;18.84;99.99
67275;DHT22;55463;52.324;5.122;2023-09-18T06:16:20;18.89;99.99
67275;DHT22;55463;52.324;5.122;2023-09-18T06:18:46;18.91;99.99
67275;DHT22;55463;52.324;5.122;2023-09-18T06:21:11;18.96;99.99
67275;DHT22;55463;52.324;5.122;2023-09-18T06:23:37;18.98;99.99
67275;DHT22;55463;52.324;5.122;2023-09-18T06:26:02;19.00;99.99
67275;DHT22;55463;52.324;5.122;2023-09-18T06:28:29;19.01;99.99
67275;DHT22;55463;52.324;5.122;2023-09-18T06:30:55;19.06;99.99
67275;DHT22;55463;52.324;5.122;2023-09-18T06:33:21;19.07;99.99
67275;DHT22;55463;52.324;5.122;2023-09-18T06:35:46;19.08;99.99
67275;DHT22;55463;52.324;5.122;2023-09-18T06:38:13;19.07;99.99
67275;DHT22;55463;52.324;5.122;2023-09-18T06:40:40;19.08;99.99
67275;DHT22;55463;52.324;5.122;2023-09-18T06:43:06;19.10;99.99
67275;DHT22;55463;52.324;5.122;2023-09-18T06:45:31;19.07;99.99
67275;DHT22;55463;52.324;5.122;2023-09-18T06:47:58;19.08;99.99
67275;DHT22;55463;52.324;5.122;2023-09-18T06:50:25;19.10;99.99
67275;DHT22;55463;52.324;5.122;2023-09-18T06:52:51;19.11;99.99
67275;DHT22;55463;52.324;5.122;2023-09-18T06:55:16;19.10;99.99
67275;DHT22;55463;52.324;5.122;2023-09-18T06:57:42;19.10;99.99
67275;DHT22;55463;52.324;5.122;2023-09-18T07:00:08;19.11;99.99
67275;DHT22;55463;52.324;5.122;2023-09-18T07:02:33;19.15;99.99
67275;DHT22;55463;52.324;5.122;2023-09-18T07:04:59;19.15;99.99
67275;DHT22;55463;52.324;5.122;2023-09-18T07:07:24;19.17;99.99
67275;DHT22;55463;52.324;5.122;2023-09-18T07:09:53;19.18;99.99
67275;DHT22;55463;52.324;5.122;2023-09-18T07:12:19;19.18;99.99
67275;DHT22;55463;52.324;5.122;2023-09-18T07:14:48;19.22;99.99
67275;DHT22;55463;52.324;5.122;2023-09-18T07:17:13;19.22;99.99
67275;DHT22;55463;52.324;5.122;2023-09-18T07:19:39;19.25;99.99
67275;DHT22;55463;52.324;5.122;2023-09-18T07:22:04;19.29;99.99
67275;DHT22;55463;52.324;5.122;2023-09-18T07:24:30;19.32;99.99
67275;DHT22;55463;52.324;5.122;2023-09-18T07:26:55;19.39;99.99
67275;DHT22;55463;52.324;5.122;2023-09-18T07:29:23;19.39;99.99
67275;DHT22;55463;52.324;5.122;2023-09-18T07:31:51;19.42;99.99
67275;DHT22;55463;52.324;5.122;2023-09-18T07:34:17;19.41;99.99
67275;DHT22;55463;52.324;5.122;2023-09-18T07:36:45;19.44;99.99
67275;DHT22;55463;52.324;5.122;2023-09-18T07:39:10;19.48;99.99
67275;DHT22;55463;52.324;5.122;2023-09-18T07:41:39;19.53;99.99
67275;DHT22;55463;52.324;5.122;2023-09-18T07:44:05;19.59;99.99
67275;DHT22;55463;52.324;5.122;2023-09-18T07:46:30;19.63;99.99
67275;DHT22;55463;52.324;5.122;2023-09-18T07:48:56;19.65;99.99
67275;DHT22;55463;52.324;5.122;2023-09-18T07:51:21;19.67;99.99
67275;DHT22;55463;52.324;5.122;2023-09-18T07:53:47;19.67;99.99
67275;DHT22;55463;52.324;5.122;2023-09-18T07:56:12;19.67;99.99
67275;DHT22;55463;52.324;5.122;2023-09-18T07:58:38;19.65;99.99
67275;DHT22;55463;52.324;5.122;2023-09-18T08:01:07;19.69;99.99
67275;DHT22;55463;52.324;5.122;2023-09-18T08:03:34;19.69;99.99
67275;DHT22;55463;52.324;5.122;2023-09-18T08:05:59;19.73;99.99
67275;DHT22;55463;52.324;5.122;2023-09-18T08:08:25;19.77;99.99
67275;DHT22;55463;52.324;5.122;2023-09-18T08:10:52;19.77;99.99
67275;DHT22;55463;52.324;5.122;2023-09-18T08:13:17;19.79;99.99
67275;DHT22;55463;52.324;5.122;2023-09-18T08:15:45;19.80;99.99
67275;DHT22;55463;52.324;5.122;2023-09-18T08:18:10;19.89;99.99
67275;DHT22;55463;52.324;5.122;2023-09-18T08:20:40;19.96;99.99
67275;DHT22;55463;52.324;5.122;2023-09-18T08:23:06;20.17;99.99
67275;DHT22;55463;52.324;5.122;2023-09-18T08:25:31;20.11;99.99
67275;DHT22;55463;52.324;5.122;2023-09-18T08:27:57;20.29;99.99
67275;DHT22;55463;52.324;5.122;2023-09-18T08:30:22;20.49;99.99
67275;DHT22;55463;52.324;5.122;2023-09-18T08:32:48;20.56;99.99
67275;DHT22;55463;52.324;5.122;2023-09-18T08:35:13;20.57;99.01
67275;DHT22;55463;52.324;5.122;2023-09-18T08:37:42;20.97;99.70
67275;DHT22;55463;52.324;5.122;2023-09-18T08:40:12;21.49;98.88
67275;DHT22;55463;52.324;5.122;2023-09-18T08:42:46;21.63;97.34
67275;DHT22;55463;52.324;5.122;2023-09-18T08:45:21;21.76;97.41
67275;DHT22;55463;52.324;5.122;2023-09-18T08:47:48;21.63;95.21
67275;DHT22;55463;52.324;5.122;2023-09-18T08:50:14;21.75;95.38
67275;DHT22;55463;52.324;5.122;2023-09-18T08:52:41;21.94;95.06
67275;DHT22;55463;52.324;5.122;2023-09-18T08:55:07;21.98;95.80
67275;DHT22;55463;52.324;5.122;2023-09-18T08:57:34;22.28;95.80
67275;DHT22;55463;52.324;5.122;2023-09-18T09:00:01;22.69;96.49
67275;DHT22;55463;52.324;5.122;2023-09-18T09:02:31;22.48;91.36
67275;DHT22;55463;52.324;5.122;2023-09-18T09:04:56;22.37;92.41
67275;DHT22;55463;52.324;5.122;2023-09-18T09:07:22;22.28;92.34
67275;DHT22;55463;52.324;5.122;2023-09-18T09:09:47;22.24;91.47
67275;DHT22;55463;52.324;5.122;2023-09-18T09:12:13;22.13;92.06
67275;DHT22;55463;52.324;5.122;2023-09-18T09:14:38;22.00;92.87
67275;DHT22;55463;52.324;5.122;2023-09-18T09:17:04;21.70;92.82
67275;DHT22;55463;52.324;5.122;2023-09-18T09:19:34;21.42;92.54
67275;DHT22;55463;52.324;5.122;2023-09-18T09:22:04;21.17;93.33
67275;DHT22;55463;52.324;5.122;2023-09-18T09:24:40;20.97;93.40
67275;DHT22;55463;52.324;5.122;2023-09-18T09:27:06;20.88;94.11
67275;DHT22;55463;52.324;5.122;2023-09-18T09:29:32;20.75;94.11
67275;DHT22;55463;52.324;5.122;2023-09-18T09:32:18;20.69;94.36
67275;DHT22;55463;52.324;5.122;2023-09-18T09:34:45;20.63;95.18
67275;DHT22;55463;52.324;5.122;2023-09-18T09:37:11;20.62;95.09
67275;DHT22;55463;52.324;5.122;2023-09-18T09:39:50;20.60;94.74
67275;DHT22;55463;52.324;5.122;2023-09-18T09:42:20;20.62;95.03
67275;DHT22;55463;52.324;5.122;2023-09-18T09:45:13;20.55;94.80
67275;DHT22;55463;52.324;5.122;2023-09-18T09:47:40;20.48;94.76
67275;DHT22;55463;52.324;5.122;2023-09-18T09:50:13;20.46;94.69
67275;DHT22;55463;52.324;5.122;2023-09-18T09:52:51;20.56;94.77
67275;DHT22;55463;52.324;5.122;2023-09-18T09:55:26;20.69;94.44
67275;DHT22;55463;52.324;5.122;2023-09-18T09:58:01;20.63;94.51
67275;DHT22;55463;52.324;5.122;2023-09-18T10:00:39;20.56;93.64
67275;DHT22;55463;52.324;5.122;2023-09-18T10:03:11;20.48;93.39
67275;DHT22;55463;52.324;5.122;2023-09-18T10:05:44;20.38;92.96
67275;DHT22;55463;52.324;5.122;2023-09-18T10:08:26;20.35;93.37
67275;DHT22;55463;52.324;5.122;2023-09-18T10:10:54;20.41;93.69
67275;DHT22;55463;52.324;5.122;2023-09-18T10:13:27;20.87;94.50
67275;DHT22;55463;52.324;5.122;2023-09-18T10:15:55;21.20;92.99
67275;DHT22;55463;52.324;5.122;2023-09-18T10:18:35;21.76;92.59
67275;DHT22;55463;52.324;5.122;2023-09-18T10:21:31;22.38;89.24
67275;DHT22;55463;52.324;5.122;2023-09-18T10:27:03;22.99;86.32
67275;DHT22;55463;52.324;5.122;2023-09-18T10:29:35;23.44;86.00
67275;DHT22;55463;52.324;5.122;2023-09-18T10:32:05;23.49;83.73
67275;DHT22;55463;52.324;5.122;2023-09-18T10:34:34;23.07;83.47
67275;DHT22;55463;52.324;5.122;2023-09-18T10:37:01;22.99;85.01
67275;DHT22;55463;52.324;5.122;2023-09-18T10:39:34;23.28;84.57
67275;DHT22;55463;52.324;5.122;2023-09-18T10:42:01;24.00;82.84
67275;DHT22;55463;52.324;5.122;2023-09-18T10:44:28;24.18;82.53
67275;DHT22;55463;52.324;5.122;2023-09-18T10:46:54;24.99;82.68
67275;DHT22;55463;52.324;5.122;2023-09-18T10:49:21;25.38;81.88
67275;DHT22;55463;52.324;5.122;2023-09-18T10:51:47;25.18;81.20
67275;DHT22;55463;52.324;5.122;2023-09-18T10:54:17;25.68;80.08
67275;DHT22;55463;52.324;5.122;2023-09-18T10:56:45;25.48;78.32
67275;DHT22;55463;52.324;5.122;2023-09-18T10:59:11;25.27;79.68
67275;DHT22;55463;52.324;5.122;2023-09-18T11:01:36;25.58;79.59
67275;DHT22;55463;52.324;5.122;2023-09-18T11:04:06;26.25;78.56
67275;DHT22;55463;52.324;5.122;2023-09-18T11:09:20;25.49;76.13
67275;DHT22;55463;52.324;5.122;2023-09-18T11:11:46;25.34;76.76
67275;DHT22;55463;52.324;5.122;2023-09-18T11:14:14;25.34;75.88
67275;DHT22;55463;52.324;5.122;2023-09-18T11:16:40;25.59;76.54
67275;DHT22;55463;52.324;5.122;2023-09-18T11:19:08;25.69;76.30
67275;DHT22;55463;52.324;5.122;2023-09-18T11:21:34;26.03;74.90
67275;DHT22;55463;52.324;5.122;2023-09-18T11:24:07;25.93;74.34
67275;DHT22;55463;52.324;5.122;2023-09-18T11:26:40;25.28;75.70
67275;DHT22;55463;52.324;5.122;2023-09-18T11:29:08;25.17;75.55
67275;DHT22;55463;52.324;5.122;2023-09-18T11:31:51;25.20;75.26
67275;DHT22;55463;52.324;5.122;2023-09-18T11:36:48;25.16;75.07
67275;DHT22;55463;52.324;5.122;2023-09-18T11:39:41;25.38;75.72
67275;DHT22;55463;52.324;5.122;2023-09-18T11:42:09;25.63;75.70
67275;DHT22;55463;52.324;5.122;2023-09-18T11:44:35;25.62;75.06
67275;DHT22;55463;52.324;5.122;2023-09-18T11:47:07;25.78;75.66
67275;DHT22;55463;52.324;5.122;2023-09-18T11:49:34;25.51;76.41
67275;DHT22;55463;52.324;5.122;2023-09-18T11:52:00;25.66;75.25
67275;DHT22;55463;52.324;5.122;2023-09-18T11:54:27;25.62;74.98
67275;DHT22;55463;52.324;5.122;2023-09-18T11:56:53;26.20;75.45
67275;DHT22;55463;52.324;5.122;2023-09-18T11:59:33;25.80;73.94
67275;DHT22;55463;52.324;5.122;2023-09-18T12:01:58;25.49;74.96
67275;DHT22;55463;52.324;5.122;2023-09-18T12:04:31;25.42;73.93
67275;DHT22;55463;52.324;5.122;2023-09-18T12:07:03;25.75;74.11
67275;DHT22;55463;52.324;5.122;2023-09-18T12:09:32;25.65;74.53
67275;DHT22;55463;52.324;5.122;2023-09-18T12:12:04;25.75;74.02
67275;DHT22;55463;52.324;5.122;2023-09-18T12:14:31;25.96;74.50
67275;DHT22;55463;52.324;5.122;2023-09-18T12:17:01;25.94;72.87
67275;DHT22;55463;52.324;5.122;2023-09-18T12:19:28;26.14;73.00
67275;DHT22;55463;52.324;5.122;2023-09-18T12:21:53;25.90;73.37
67275;DHT22;55463;52.324;5.122;2023-09-18T12:24:25;25.45;74.64
67275;DHT22;55463;52.324;5.122;2023-09-18T12:26:52;25.25;75.58
67275;DHT22;55463;52.324;5.122;2023-09-18T12:29:19;24.75;75.48
67275;DHT22;55463;52.324;5.122;2023-09-18T12:31:44;24.65;75.19
67275;DHT22;55463;52.324;5.122;2023-09-18T12:34:17;24.84;75.68
67275;DHT22;55463;52.324;5.122;2023-09-18T12:36:44;24.80;74.36
67275;DHT22;55463;52.324;5.122;2023-09-18T12:39:12;24.87;74.32
67275;DHT22;55463;52.324;5.122;2023-09-18T12:41:42;24.77;75.69
67275;DHT22;55463;52.324;5.122;2023-09-18T12:44:08;24.80;75.35
67275;DHT22;55463;52.324;5.122;2023-09-18T12:46:35;24.25;75.83
67275;DHT22;55463;52.324;5.122;2023-09-18T12:49:21;24.32;77.57
67275;DHT22;55463;52.324;5.122;2023-09-18T12:51:58;25.00;77.30
67275;DHT22;55463;52.324;5.122;2023-09-18T12:54:43;25.20;75.63
67275;DHT22;55463;52.324;5.122;2023-09-18T12:57:19;25.39;75.69
67275;DHT22;55463;52.324;5.122;2023-09-18T12:59:45;25.88;76.26
67275;DHT22;55463;52.324;5.122;2023-09-18T13:02:13;25.68;74.43
67275;DHT22;55463;52.324;5.122;2023-09-18T13:04:39;25.75;73.45
67275;DHT22;55463;52.324;5.122;2023-09-18T13:07:10;25.83;74.01
67275;DHT22;55463;52.324;5.122;2023-09-18T13:09:36;25.27;73.80
67275;DHT22;55463;52.324;5.122;2023-09-18T13:12:03;25.17;74.61
67275;DHT22;55463;52.324;5.122;2023-09-18T13:14:29;24.96;74.55
67275;DHT22;55463;52.324;5.122;2023-09-18T13:17:00;24.89;74.46
67275;DHT22;55463;52.324;5.122;2023-09-18T13:19:25;24.69;75.10
67275;DHT22;55463;52.324;5.122;2023-09-18T13:21:51;24.76;74.99
67275;DHT22;55463;52.324;5.122;2023-09-18T13:24:29;24.97;75.21
67275;DHT22;55463;52.324;5.122;2023-09-18T13:26:55;24.91;75.34
67275;DHT22;55463;52.324;5.122;2023-09-18T13:29:23;24.75;75.89
67275;DHT22;55463;52.324;5.122;2023-09-18T13:31:48;24.48;75.48
67275;DHT22;55463;52.324;5.122;2023-09-18T13:34:15;24.63;76.28
67275;DHT22;55463;52.324;5.122;2023-09-18T13:36:44;24.61;75.83
67275;DHT22;55463;52.324;5.122;2023-09-18T13:39:11;24.52;75.74
67275;DHT22;55463;52.324;5.122;2023-09-18T13:41:36;24.42;75.44
67275;DHT22;55463;52.324;5.122;2023-09-18T13:44:02;24.49;75.98
67275;DHT22;55463;52.324;5.122;2023-09-18T13:46:27;24.80;75.28
67275;DHT22;55463;52.324;5.122;2023-09-18T13:48:53;24.83;74.96
67275;DHT22;55463;52.324;5.122;2023-09-18T13:51:18;24.86;74.57
67275;DHT22;55463;52.324;5.122;2023-09-18T13:53:43;24.99;74.24
67275;DHT22;55463;52.324;5.122;2023-09-18T13:56:09;25.03;75.07
67275;DHT22;55463;52.324;5.122;2023-09-18T13:58:34;24.77;74.94
67275;DHT22;55463;52.324;5.122;2023-09-18T14:01:02;24.90;74.39
67275;DHT22;55463;52.324;5.122;2023-09-18T14:03:27;24.69;73.72
67275;DHT22;55463;52.324;5.122;2023-09-18T14:05:53;24.59;74.32
67275;DHT22;55463;52.324;5.122;2023-09-18T14:08:18;24.32;74.63
67275;DHT22;55463;52.324;5.122;2023-09-18T14:10:44;24.48;75.17
67275;DHT22;55463;52.324;5.122;2023-09-18T14:13:10;24.44;74.62
67275;DHT22;55463;52.324;5.122;2023-09-18T14:15:35;24.38;73.68
67275;DHT22;55463;52.324;5.122;2023-09-18T14:18:02;24.13;74.45
67275;DHT22;55463;52.324;5.122;2023-09-18T14:20:28;23.92;75.19
67275;DHT22;55463;52.324;5.122;2023-09-18T14:22:54;23.82;74.90
67275;DHT22;55463;52.324;5.122;2023-09-18T14:25:20;23.55;75.69
67275;DHT22;55463;52.324;5.122;2023-09-18T14:27:47;23.32;76.10
67275;DHT22;55463;52.324;5.122;2023-09-18T14:30:13;23.18;76.45
67275;DHT22;55463;52.324;5.122;2023-09-18T14:32:38;23.06;76.66
67275;DHT22;55463;52.324;5.122;2023-09-18T14:35:05;22.94;76.87
67275;DHT22;55463;52.324;5.122;2023-09-18T14:37:33;22.75;77.13
67275;DHT22;55463;52.324;5.122;2023-09-18T14:39:58;22.66;77.38
67275;DHT22;55463;52.324;5.122;2023-09-18T14:42:24;22.48;77.74
67275;DHT22;55463;52.324;5.122;2023-09-18T14:44:49;22.39;77.99
67275;DHT22;55463;52.324;5.122;2023-09-18T14:47:15;22.32;78.84
67275;DHT22;55463;52.324;5.122;2023-09-18T14:49:41;22.18;78.89
67275;DHT22;55463;52.324;5.122;2023-09-18T14:52:08;22.08;80.44
67275;DHT22;55463;52.324;5.122;2023-09-18T14:54:34;21.93;82.10
67275;DHT22;55463;52.324;5.122;2023-09-18T14:56:59;21.65;83.83
67275;DHT22;55463;52.324;5.122;2023-09-18T14:59:26;21.53;84.38
67275;DHT22;55463;52.324;5.122;2023-09-18T15:01:51;21.30;85.17
67275;DHT22;55463;52.324;5.122;2023-09-18T15:04:17;21.10;85.40
67275;DHT22;55463;52.324;5.122;2023-09-18T15:06:42;20.98;86.68
67275;DHT22;55463;52.324;5.122;2023-09-18T15:09:08;20.73;87.33
67275;DHT22;55463;52.324;5.122;2023-09-18T15:11:34;20.69;87.36
67275;DHT22;55463;52.324;5.122;2023-09-18T15:14:02;20.48;88.30
67275;DHT22;55463;52.324;5.122;2023-09-18T15:16:28;20.13;88.32
67275;DHT22;55463;52.324;5.122;2023-09-18T15:18:55;19.90;89.54
67275;DHT22;55463;52.324;5.122;2023-09-18T15:21:21;19.67;89.84
67275;DHT22;55463;52.324;5.122;2023-09-18T15:23:46;19.42;90.31
67275;DHT22;55463;52.324;5.122;2023-09-18T15:26:13;19.24;90.78
67275;DHT22;55463;52.324;5.122;2023-09-18T15:28:38;19.17;91.18
67275;DHT22;55463;52.324;5.122;2023-09-18T15:31:04;18.91;92.10
67275;DHT22;55463;52.324;5.122;2023-09-18T15:33:29;18.83;92.22
67275;DHT22;55463;52.324;5.122;2023-09-18T15:35:54;18.84;92.09
67275;DHT22;55463;52.324;5.122;2023-09-18T15:38:20;18.72;91.72
67275;DHT22;55463;52.324;5.122;2023-09-18T15:40:46;18.63;91.14